createdAt,value
2024-03-11T00:04:25.143Z,100070.34
2024-03-11T00:09:33.322Z,100068.81
2024-03-11T00:14:36.013Z,100055.94
2024-03-11T00:19:40.107Z,100052.09
2024-03-11T00:24:44.172Z,100055.13
2024-03-11T00:29:46.817Z,100055.91
2024-03-11T00:34:52.491Z,100055.16
2024-03-11T00:39:55.033Z,100061.13
2024-03-11T00:44:58.421Z,100065.19
2024-03-11T00:50:02.329Z,100058.69
2024-03-11T00:55:07.763Z,100061.81
2024-03-11T01:00:12.837Z,100065.16
2024-03-11T01:05:17.949Z,100065.09
2024-03-11T01:10:21.103Z,100069.66
2024-03-11T01:15:23.689Z,100070.63
2024-03-11T01:20:27.675Z,100077.44
2024-03-11T01:25:30.212Z,100055.84
2024-03-11T01:30:36.090Z,100065.50
2024-03-11T01:35:42.542Z,100059.94
2024-03-11T01:40:45.182Z,100046.59
2024-03-11T01:45:47.737Z,100051.00
2024-03-11T01:50:51.783Z,100044.16
2024-03-11T01:55:54.437Z,100044.25
2024-03-11T02:00:57.642Z,100043.41
2024-03-11T02:06:01.487Z,100052.16
2024-03-11T02:11:04.097Z,100039.97
2024-03-11T02:16:07.365Z,100041.88
2024-03-11T02:21:12.508Z,100020.03
2024-03-11T02:26:17.301Z,100020.19
2024-03-11T02:31:19.873Z,100016.66
2024-03-11T02:36:23.391Z,100003.19
2024-03-11T02:41:27.344Z,100009.31
2024-03-11T02:46:29.888Z,100009.72
2024-03-11T02:51:32.506Z,100007.91
2024-03-11T02:56:36.461Z,99999.19
2024-03-11T03:01:39.502Z,100006.13
2024-03-11T03:06:42.021Z,99995.56
2024-03-11T03:11:46.008Z,99994.59
2024-03-11T03:16:48.562Z,99989.22
2024-03-11T03:21:51.139Z,100005.81
2024-03-11T03:26:55.455Z,100007.91
2024-03-11T03:31:58.598Z,100002.53
2024-03-11T03:37:01.142Z,99990.66
2024-03-11T03:42:06.379Z,99985.84
2024-03-11T03:47:09.064Z,99987.53
2024-03-11T03:52:11.640Z,99982.81
2024-03-11T03:57:16.711Z,99982.91
2024-03-11T04:02:19.269Z,99986.34
2024-03-11T04:07:21.844Z,99987.38
2024-03-11T04:12:25.750Z,99986.41
2024-03-11T04:17:28.319Z,99988.63
2024-03-11T04:22:30.885Z,99996.38
2024-03-11T04:27:35.920Z,99992.38
2024-03-11T04:32:38.502Z,100007.81
2024-03-11T04:37:41.324Z,100004.63
2024-03-11T04:42:45.185Z,99998.50
2024-03-11T04:47:47.931Z,100000.47
2024-03-11T04:52:50.513Z,100007.47
2024-03-11T04:57:54.628Z,99998.81
2024-03-11T05:02:57.934Z,99995.53
2024-03-11T05:08:00.473Z,99992.63
2024-03-11T05:13:05.399Z,99991.63
2024-03-11T05:18:08.988Z,99983.75
2024-03-11T05:23:11.760Z,99988.03
2024-03-11T05:28:15.683Z,99997.69
2024-03-11T05:33:18.681Z,100002.84
2024-03-11T05:38:21.298Z,100021.25
2024-03-11T05:43:25.147Z,100042.00
2024-03-11T05:48:27.740Z,100037.34
2024-03-11T05:53:30.610Z,100041.84
2024-03-11T05:58:34.492Z,100034.81
2024-03-11T06:03:37.575Z,100034.00
2024-03-11T06:08:40.705Z,100041.69
2024-03-11T06:13:44.718Z,100044.03
2024-03-11T06:18:47.564Z,100053.38
2024-03-11T06:23:50.997Z,100053.31
2024-03-11T06:28:57.071Z,100053.97
2024-03-11T06:33:59.623Z,100054.84
2024-03-11T06:39:02.166Z,100060.00
2024-03-11T06:44:07.761Z,100065.16
2024-03-11T06:49:10.359Z,100069.59
2024-03-11T06:54:13.108Z,100072.38
2024-03-11T06:59:17.140Z,100082.09
2024-03-11T07:04:21.427Z,100078.75
2024-03-11T07:09:23.986Z,100091.72
2024-03-11T07:14:27.925Z,100085.75
2024-03-11T07:19:31.896Z,100079.81
2024-03-11T07:24:35.054Z,100082.72
2024-03-11T07:29:39.044Z,100078.00
2024-03-11T07:34:43.353Z,100083.84
2024-03-11T07:39:46.174Z,100069.06
2024-03-11T07:44:50.164Z,100075.44
2024-03-11T07:49:55.052Z,100086.41
2024-03-11T07:54:57.584Z,100097.28
2024-03-11T08:00:02.105Z,100103.94
2024-03-11T08:05:05.116Z,100105.06
2024-03-11T08:10:10.670Z,100101.22
2024-03-11T08:15:15.852Z,100106.56
2024-03-11T08:20:21.628Z,100106.38
2024-03-11T08:25:28.892Z,100112.19
2024-03-11T08:30:33.124Z,100123.50
2024-03-11T08:35:35.720Z,100119.22
2024-03-11T08:40:39.500Z,100134.22
2024-03-11T08:45:43.682Z,100134.13
2024-03-11T08:50:46.199Z,100155.16
2024-03-11T08:55:49.951Z,100150.56
2024-03-11T09:00:54.441Z,100157.59
2024-03-11T09:05:57.580Z,100153.09
2024-03-11T09:11:00.155Z,100154.75
2024-03-11T09:16:05.709Z,100156.97
2024-03-11T09:21:09.590Z,100148.09
2024-03-11T09:26:12.207Z,100148.47
2024-03-11T09:31:18.144Z,100150.47
2024-03-11T09:36:21.047Z,100155.31
2024-03-11T09:41:24.029Z,100170.78
2024-03-11T09:46:29.559Z,100169.72
2024-03-11T09:51:32.642Z,100173.38
2024-03-11T09:56:36.480Z,100193.63
2024-03-11T10:01:45.503Z,100194.75
2024-03-11T10:06:57.609Z,100200.81
2024-03-11T10:12:05.843Z,100195.75
2024-03-11T10:17:25.130Z,100195.00
2024-03-11T10:22:29.533Z,100187.88
2024-03-11T10:27:34.585Z,100187.06
2024-03-11T10:32:43.044Z,100181.91
2024-03-11T10:37:45.794Z,100199.25
2024-03-11T10:42:54.679Z,100204.06
2024-03-11T10:48:01.864Z,100203.25
2024-03-11T10:53:05.094Z,100210.69
2024-03-11T10:58:10.888Z,100214.38
2024-03-11T11:03:15.756Z,100217.09
2024-03-11T11:08:23.724Z,100220.97
2024-03-11T11:13:27.593Z,100225.78
2024-03-11T11:18:33.760Z,100227.44
2024-03-11T11:23:39.018Z,100234.66
2024-03-11T11:28:41.737Z,100239.75
2024-03-11T11:33:54.637Z,100249.66
2024-03-11T11:38:59.394Z,100251.59
2024-03-11T11:44:01.948Z,100246.44
2024-03-11T11:49:18.562Z,100258.94
2024-03-11T11:54:34.530Z,100258.94
2024-03-11T11:59:41.629Z,100255.50
2024-03-11T12:04:49.787Z,100258.09
2024-03-11T12:09:53.804Z,100259.16
2024-03-11T12:15:00.404Z,100270.63
2024-03-11T12:20:16.161Z,100263.88
2024-03-11T12:25:19.231Z,100260.38
2024-03-11T12:30:25.796Z,100266.28
2024-03-11T12:35:30.299Z,100268.00
2024-03-11T12:40:35.974Z,100267.81
2024-03-11T12:45:43.590Z,100265.22
2024-03-11T12:50:48.826Z,100268.59
2024-03-11T12:56:02.402Z,100274.97
2024-03-11T13:01:10.699Z,100276.78
2024-03-11T13:06:20.003Z,100268.25
2024-03-11T13:11:24.543Z,100272.69
2024-03-11T13:16:27.994Z,100262.94
2024-03-11T13:21:31.957Z,100276.19
2024-03-11T13:26:34.496Z,100276.41
2024-03-11T13:31:38.042Z,100281.00
2024-03-11T13:36:42.051Z,100297.56
2024-03-11T13:41:49.934Z,100297.41
2024-03-11T13:46:55.467Z,100307.97
2024-03-11T13:52:01.511Z,100316.34
2024-03-11T13:57:04.315Z,100319.09
2024-03-11T14:02:08.219Z,100325.25
2024-03-11T14:07:12.176Z,100333.78
2024-03-11T14:12:14.743Z,100337.91
2024-03-11T14:17:17.799Z,100345.00
2024-03-11T14:22:22.873Z,100338.94
2024-03-11T14:27:28.216Z,100347.81
2024-03-11T14:32:31.547Z,100344.50
2024-03-11T14:37:35.449Z,100349.94
2024-03-11T14:42:40.666Z,100353.94
2024-03-11T14:47:46.627Z,100365.09
2024-03-11T14:52:50.988Z,100371.41
2024-03-11T14:57:54.801Z,100372.16
2024-03-11T15:02:57.472Z,100375.75
2024-03-11T15:08:02.210Z,100368.97
2024-03-11T15:13:06.056Z,100380.66
2024-03-11T15:18:11.180Z,100380.06
2024-03-11T15:23:15.216Z,100385.00
2024-03-11T15:28:19.076Z,100386.88
2024-03-11T15:33:22.801Z,100395.84
2024-03-11T15:38:28.834Z,100393.28
2024-03-11T15:43:31.827Z,100394.34
2024-03-11T15:48:35.706Z,100397.13
2024-03-11T15:53:41.443Z,100402.56
2024-03-11T15:58:45.131Z,100408.25
2024-03-11T16:03:47.826Z,100409.16
2024-03-11T16:08:52.089Z,100408.19
2024-03-11T16:13:57.683Z,100419.50
2024-03-11T16:19:01.543Z,100424.66
2024-03-11T16:24:05.655Z,100431.22
2024-03-11T16:29:08.308Z,100429.41
2024-03-11T16:34:11.615Z,100440.50
2024-03-11T16:39:16.959Z,100434.78
2024-03-11T16:44:19.935Z,100438.06
2024-03-11T16:49:25.549Z,100444.94
2024-03-11T16:54:29.824Z,100461.19
2024-03-11T16:59:32.392Z,100466.75
2024-03-11T17:04:34.906Z,100465.19
2024-03-11T17:09:40.833Z,100475.91
2024-03-11T17:14:43.420Z,100477.03
2024-03-11T17:19:46.355Z,100488.00
2024-03-11T17:24:50.264Z,100498.00
2024-03-11T17:29:53.099Z,100508.88
2024-03-11T17:34:55.647Z,100520.91
2024-03-11T17:39:59.630Z,100523.25
2024-03-11T17:45:02.393Z,100529.97
2024-03-11T17:50:08.219Z,100542.88
2024-03-11T17:55:15.445Z,100535.47
2024-03-11T18:00:25.191Z,100540.63
2024-03-11T18:05:29.047Z,100541.44
2024-03-11T18:10:35.014Z,100537.28
2024-03-11T18:15:37.647Z,100543.44
2024-03-11T18:20:42.173Z,100548.50
2024-03-11T18:25:51.060Z,100557.53
2024-03-11T18:30:55.915Z,100558.81
2024-03-11T18:35:59.475Z,100557.56
2024-03-11T18:41:03.451Z,100576.97
2024-03-11T18:46:06.616Z,100582.94
2024-03-11T18:51:09.250Z,100584.34
2024-03-11T18:56:16.522Z,100588.00
2024-03-11T19:01:22.237Z,100597.47
2024-03-11T19:06:25.818Z,100603.63
2024-03-11T19:11:30.633Z,100601.44
2024-03-11T19:16:33.831Z,100615.06
2024-03-11T19:21:39.311Z,100613.59
2024-03-11T19:26:43.402Z,100603.47
2024-03-11T19:31:46.021Z,100605.03
2024-03-11T19:37:25.236Z,100610.69
2024-03-11T19:42:57.144Z,100609.72
2024-03-11T19:48:32.746Z,100624.13
2024-03-11T19:54:21.651Z,100626.84
2024-03-11T19:59:57.674Z,100638.50
2024-03-11T20:05:27.934Z,100636.72
2024-03-11T20:10:59.693Z,100640.56
2024-03-11T20:16:48.935Z,100640.13
2024-03-11T20:22:19.061Z,100653.53
2024-03-11T20:27:34.058Z,100663.09
2024-03-11T20:32:48.555Z,100674.34
2024-03-11T20:37:54.621Z,100670.94
2024-03-11T20:42:58.195Z,100676.56
2024-03-11T20:48:01.044Z,100673.44
2024-03-11T20:53:11.395Z,100664.38
2024-03-11T20:58:14.135Z,100676.84
2024-03-11T21:03:17.385Z,100678.03
2024-03-11T21:08:21.348Z,100683.16
2024-03-11T21:13:23.892Z,100687.50
2024-03-11T21:18:26.444Z,100689.47
2024-03-11T21:23:38.893Z,100687.56
2024-03-11T21:28:41.443Z,100703.53
2024-03-11T21:33:45.154Z,100709.72
2024-03-11T21:38:49.298Z,100713.59
2024-03-11T21:43:51.895Z,100716.78
2024-03-11T21:48:54.445Z,100725.56
2024-03-11T21:53:58.406Z,100713.72
2024-03-11T21:59:00.923Z,100723.13
2024-03-11T22:04:03.631Z,100734.75
2024-03-11T22:09:11.044Z,100727.38
2024-03-11T22:14:13.721Z,100734.88
2024-03-11T22:19:16.968Z,100725.94
2024-03-11T22:24:20.902Z,100737.63
2024-03-11T22:29:23.450Z,100739.09
2024-03-11T22:34:25.986Z,100749.19
2024-03-11T22:39:30.104Z,100750.88
2024-03-11T22:44:32.729Z,100752.16
2024-03-11T22:49:35.815Z,100756.22
2024-03-11T22:54:39.896Z,100751.38
2024-03-11T22:59:42.531Z,100767.16
2024-03-11T23:04:49.414Z,100767.16
2024-03-11T23:09:53.563Z,100771.34
2024-03-11T23:14:56.994Z,100774.16
2024-03-11T23:19:59.539Z,100778.94
2024-03-11T23:25:04.859Z,100782.53
2024-03-11T23:30:14.246Z,100770.66
2024-03-11T23:35:17.097Z,100782.16
2024-03-11T23:40:21.228Z,100778.78
2024-03-11T23:45:24.367Z,100784.41
2024-03-11T23:50:27.444Z,100779.41
2024-03-11T23:55:31.314Z,100790.28
